Cedarville, New York
Current Conditions -  °F | °C
As of 2:53 AM on Sunday 26 Oct 2014 (Local Time) from KRME Reporting Station
Scattered Clouds Scattered Clouds  
Wind Chill: 42°   Ceiling: Unl
Heat Index: 44°   Visibility: 10mi
Dew Point: 40°   Wind: 5mph
Humidity: 85%   Direction: 310°NW
Pressure: 29.55"   Gusts: NA
Location:  42.9693°N, 75.0798°W
Report Text: KRME 260653Z AUTO 31004KT 10SM SCT065 07/04 A2955 RMK AO2 SLP004 T00670044
Loading
Personal Weather Stations






























Interactive Weather Map
Tropical Storm Tracking
New forecast layout! Learn more

10-Day Weather Forecast

Advertisements
Track Severe Weather on mobile